Terminal Aerodrome Forecast
Issued by NWS Riverton, WY

Home | Current Version | Previous Version | Text Only | Print | Product List | Glossary On
Versions: 1 2 3 4 5 6 7 8 9 10 11 12 13
000
FTUS45 KRIW 030500
TAFRIW
TAF
KRIW 030524Z 0306/0406 28007KT P6SM FEW120
     FM031400 VRB05KT P6SM FEW120
     FM032000 25015G25KT P6SM FEW150
     FM040000 28014KT P6SM FEW120
     FM040400 02014KT P6SM FEW120=

USA.gov is the U.S. government's official web portal to all federal, state and local government web resources and services.